sensor_id;sensor_type;location;lat;lon;timestamp;temperature;humidity
14154;DHT22;7157;53.144;7.570;2023-10-08T00:00:45;14.27;104.12
14154;DHT22;7157;53.144;7.570;2023-10-08T00:10:50;14.20;104.23
14154;DHT22;7157;53.144;7.570;2023-10-08T00:20:53;14.23;104.23
14154;DHT22;7157;53.144;7.570;2023-10-08T00:31:02;14.29;103.90
14154;DHT22;7157;53.144;7.570;2023-10-08T00:41:13;14.40;103.54
14154;DHT22;7157;53.144;7.570;2023-10-08T00:51:17;14.36;103.30
14154;DHT22;7157;53.144;7.570;2023-10-08T01:01:42;14.44;103.32
14154;DHT22;7157;53.144;7.570;2023-10-08T01:12:11;14.35;103.16
14154;DHT22;7157;53.144;7.570;2023-10-08T01:22:20;14.45;103.04
14154;DHT22;7157;53.144;7.570;2023-10-08T01:32:23;14.44;102.98
14154;DHT22;7157;53.144;7.570;2023-10-08T01:42:27;14.27;102.96
14154;DHT22;7157;53.144;7.570;2023-10-08T01:52:30;14.35;103.02
14154;DHT22;7157;53.144;7.570;2023-10-08T02:02:35;14.32;102.97
14154;DHT22;7157;53.144;7.570;2023-10-08T02:12:38;14.25;103.02
14154;DHT22;7157;53.144;7.570;2023-10-08T02:22:42;14.26;102.96
14154;DHT22;7157;53.144;7.570;2023-10-08T02:32:47;14.28;102.80
14154;DHT22;7157;53.144;7.570;2023-10-08T02:42:53;14.36;102.62
14154;DHT22;7157;53.144;7.570;2023-10-08T02:52:59;14.24;102.54
14154;DHT22;7157;53.144;7.570;2023-10-08T03:03:12;14.03;102.74
14154;DHT22;7157;53.144;7.570;2023-10-08T03:13:18;13.91;102.93
14154;DHT22;7157;53.144;7.570;2023-10-08T03:23:22;13.88;103.28
14154;DHT22;7157;53.144;7.570;2023-10-08T03:33:28;13.94;103.15
14154;DHT22;7157;53.144;7.570;2023-10-08T03:43:32;13.96;103.02
14154;DHT22;7157;53.144;7.570;2023-10-08T03:53:48;13.90;103.05
14154;DHT22;7157;53.144;7.570;2023-10-08T04:04:18;13.93;102.99
14154;DHT22;7157;53.144;7.570;2023-10-08T04:14:23;13.82;103.12
14154;DHT22;7157;53.144;7.570;2023-10-08T04:24:27;13.74;103.16
14154;DHT22;7157;53.144;7.570;2023-10-08T04:34:36;13.79;103.16
14154;DHT22;7157;53.144;7.570;2023-10-08T04:44:40;13.85;103.06
14154;DHT22;7157;53.144;7.570;2023-10-08T04:54:43;13.88;103.23
14154;DHT22;7157;53.144;7.570;2023-10-08T05:04:54;13.88;103.02
14154;DHT22;7157;53.144;7.570;2023-10-08T05:15:23;13.88;103.05
14154;DHT22;7157;53.144;7.570;2023-10-08T05:25:43;13.85;103.47
14154;DHT22;7157;53.144;7.570;2023-10-08T05:35:59;13.83;103.63
14154;DHT22;7157;53.144;7.570;2023-10-08T05:46:13;13.77;103.60
14154;DHT22;7157;53.144;7.570;2023-10-08T05:56:30;13.63;103.62
14154;DHT22;7157;53.144;7.570;2023-10-08T06:06:45;13.56;103.64
14154;DHT22;7157;53.144;7.570;2023-10-08T06:16:59;13.60;103.60
14154;DHT22;7157;53.144;7.570;2023-10-08T06:27:16;13.66;103.66
14154;DHT22;7157;53.144;7.570;2023-10-08T06:37:19;13.84;103.36
14154;DHT22;7157;53.144;7.570;2023-10-08T06:47:23;13.89;103.15
14154;DHT22;7157;53.144;7.570;2023-10-08T06:57:26;14.10;102.76
14154;DHT22;7157;53.144;7.570;2023-10-08T07:07:30;14.39;102.05
14154;DHT22;7157;53.144;7.570;2023-10-08T07:17:33;14.57;101.02
14154;DHT22;7157;53.144;7.570;2023-10-08T07:27:43;14.80;100.27
14154;DHT22;7157;53.144;7.570;2023-10-08T07:37:46;14.98;98.99
14154;DHT22;7157;53.144;7.570;2023-10-08T07:47:50;15.29;95.56
14154;DHT22;7157;53.144;7.570;2023-10-08T07:57:54;15.38;92.36
14154;DHT22;7157;53.144;7.570;2023-10-08T08:07:58;15.54;91.08
14154;DHT22;7157;53.144;7.570;2023-10-08T08:18:07;15.72;91.29
14154;DHT22;7157;53.144;7.570;2023-10-08T08:28:22;16.02;87.73
14154;DHT22;7157;53.144;7.570;2023-10-08T08:38:26;16.39;85.83
14154;DHT22;7157;53.144;7.570;2023-10-08T08:48:34;16.59;83.22
14154;DHT22;7157;53.144;7.570;2023-10-08T08:58:40;16.63;81.33
14154;DHT22;7157;53.144;7.570;2023-10-08T09:08:46;16.96;77.63
14154;DHT22;7157;53.144;7.570;2023-10-08T09:18:51;17.03;78.32
14154;DHT22;7157;53.144;7.570;2023-10-08T09:28:55;16.91;75.13
14154;DHT22;7157;53.144;7.570;2023-10-08T09:39:00;16.85;72.16
14154;DHT22;7157;53.144;7.570;2023-10-08T09:49:07;16.73;73.82
14154;DHT22;7157;53.144;7.570;2023-10-08T09:59:15;16.96;71.58
14154;DHT22;7157;53.144;7.570;2023-10-08T10:09:23;16.90;71.35
14154;DHT22;7157;53.144;7.570;2023-10-08T10:19:26;16.98;72.90
14154;DHT22;7157;53.144;7.570;2023-10-08T10:29:30;17.05;71.52
14154;DHT22;7157;53.144;7.570;2023-10-08T10:39:34;17.39;70.11
14154;DHT22;7157;53.144;7.570;2023-10-08T10:49:43;17.38;67.07
14154;DHT22;7157;53.144;7.570;2023-10-08T10:59:54;17.76;64.43
14154;DHT22;7157;53.144;7.570;2023-10-08T11:09:59;18.07;62.47
14154;DHT22;7157;53.144;7.570;2023-10-08T11:20:02;18.42;62.34
14154;DHT22;7157;53.144;7.570;2023-10-08T11:30:10;18.39;61.90
14154;DHT22;7157;53.144;7.570;2023-10-08T11:40:21;19.40;56.93
14154;DHT22;7157;53.144;7.570;2023-10-08T11:50:32;20.11;55.78
14154;DHT22;7157;53.144;7.570;2023-10-08T12:00:37;25.63;41.84
14154;DHT22;7157;53.144;7.570;2023-10-08T12:10:47;24.93;42.13
14154;DHT22;7157;53.144;7.570;2023-10-08T12:20:56;22.13;45.71
14154;DHT22;7157;53.144;7.570;2023-10-08T12:31:00;20.60;50.14
14154;DHT22;7157;53.144;7.570;2023-10-08T12:41:03;19.58;52.01
14154;DHT22;7157;53.144;7.570;2023-10-08T12:51:15;19.13;54.32
14154;DHT22;7157;53.144;7.570;2023-10-08T13:01:19;19.16;54.03
14154;DHT22;7157;53.144;7.570;2023-10-08T13:11:24;19.66;54.09
14154;DHT22;7157;53.144;7.570;2023-10-08T13:21:27;19.62;53.49
14154;DHT22;7157;53.144;7.570;2023-10-08T13:31:31;19.91;54.06
14154;DHT22;7157;53.144;7.570;2023-10-08T13:41:38;20.33;52.37
14154;DHT22;7157;53.144;7.570;2023-10-08T13:51:45;19.95;53.13
14154;DHT22;7157;53.144;7.570;2023-10-08T14:01:50;19.10;54.23
14154;DHT22;7157;53.144;7.570;2023-10-08T14:11:55;18.59;55.26
14154;DHT22;7157;53.144;7.570;2023-10-08T14:21:58;18.23;54.39
14154;DHT22;7157;53.144;7.570;2023-10-08T14:32:06;17.95;57.03
14154;DHT22;7157;53.144;7.570;2023-10-08T14:42:10;17.73;58.64
14154;DHT22;7157;53.144;7.570;2023-10-08T14:52:32;17.85;58.99
14154;DHT22;7157;53.144;7.570;2023-10-08T15:02:35;17.61;61.03
14154;DHT22;7157;53.144;7.570;2023-10-08T15:12:40;17.69;60.90
14154;DHT22;7157;53.144;7.570;2023-10-08T15:22:44;17.52;61.45
14154;DHT22;7157;53.144;7.570;2023-10-08T15:32:49;17.37;62.08
14154;DHT22;7157;53.144;7.570;2023-10-08T15:42:54;17.07;62.86
14154;DHT22;7157;53.144;7.570;2023-10-08T15:52:59;16.94;64.21
14154;DHT22;7157;53.144;7.570;2023-10-08T16:03:02;16.67;66.65
14154;DHT22;7157;53.144;7.570;2023-10-08T16:13:08;16.59;67.90
14154;DHT22;7157;53.144;7.570;2023-10-08T16:23:11;16.33;70.01
14154;DHT22;7157;53.144;7.570;2023-10-08T16:33:15;16.17;71.15
14154;DHT22;7157;53.144;7.570;2023-10-08T16:43:19;16.10;72.29
14154;DHT22;7157;53.144;7.570;2023-10-08T16:53:23;16.01;73.61
14154;DHT22;7157;53.144;7.570;2023-10-08T17:03:26;15.97;73.88
14154;DHT22;7157;53.144;7.570;2023-10-08T17:13:31;15.88;74.80
14154;DHT22;7157;53.144;7.570;2023-10-08T17:23:34;15.83;75.08
14154;DHT22;7157;53.144;7.570;2023-10-08T17:33:38;15.84;75.61
14154;DHT22;7157;53.144;7.570;2023-10-08T17:43:43;15.78;76.22
14154;DHT22;7157;53.144;7.570;2023-10-08T17:53:47;15.74;77.32
14154;DHT22;7157;53.144;7.570;2023-10-08T18:03:50;15.72;78.07
14154;DHT22;7157;53.144;7.570;2023-10-08T18:13:54;15.67;78.38
14154;DHT22;7157;53.144;7.570;2023-10-08T18:23:57;15.59;78.60
14154;DHT22;7157;53.144;7.570;2023-10-08T18:34:03;15.57;79.01
14154;DHT22;7157;53.144;7.570;2023-10-08T18:44:06;15.57;79.13
14154;DHT22;7157;53.144;7.570;2023-10-08T18:54:11;15.58;79.09
14154;DHT22;7157;53.144;7.570;2023-10-08T19:04:15;15.46;79.87
14154;DHT22;7157;53.144;7.570;2023-10-08T19:14:21;15.51;80.43
14154;DHT22;7157;53.144;7.570;2023-10-08T19:24:24;15.39;81.46
14154;DHT22;7157;53.144;7.570;2023-10-08T19:34:30;15.38;81.98
14154;DHT22;7157;53.144;7.570;2023-10-08T19:44:34;15.28;83.32
14154;DHT22;7157;53.144;7.570;2023-10-08T19:54:38;15.15;85.51
14154;DHT22;7157;53.144;7.570;2023-10-08T20:04:41;15.03;86.98
14154;DHT22;7157;53.144;7.570;2023-10-08T20:14:46;15.00;88.23
14154;DHT22;7157;53.144;7.570;2023-10-08T20:24:52;14.95;89.32
14154;DHT22;7157;53.144;7.570;2023-10-08T20:34:56;14.77;90.11
14154;DHT22;7157;53.144;7.570;2023-10-08T20:45:00;14.68;91.46
14154;DHT22;7157;53.144;7.570;2023-10-08T20:55:10;14.79;91.86
14154;DHT22;7157;53.144;7.570;2023-10-08T21:05:14;14.86;91.78
14154;DHT22;7157;53.144;7.570;2023-10-08T21:15:20;14.81;92.10
14154;DHT22;7157;53.144;7.570;2023-10-08T21:25:24;14.74;92.50
14154;DHT22;7157;53.144;7.570;2023-10-08T21:35:29;14.63;93.26
14154;DHT22;7157;53.144;7.570;2023-10-08T21:45:35;14.49;93.88
14154;DHT22;7157;53.144;7.570;2023-10-08T21:55:41;14.43;94.30
14154;DHT22;7157;53.144;7.570;2023-10-08T22:05:46;14.52;94.58
14154;DHT22;7157;53.144;7.570;2023-10-08T22:15:50;14.51;95.78
14154;DHT22;7157;53.144;7.570;2023-10-08T22:25:57;14.65;95.86
14154;DHT22;7157;53.144;7.570;2023-10-08T22:36:02;14.68;95.62
14154;DHT22;7157;53.144;7.570;2023-10-08T22:46:08;14.71;95.67
14154;DHT22;7157;53.144;7.570;2023-10-08T22:56:12;14.72;95.68
14154;DHT22;7157;53.144;7.570;2023-10-08T23:06:15;14.70;95.91
14154;DHT22;7157;53.144;7.570;2023-10-08T23:16:20;14.68;95.90
14154;DHT22;7157;53.144;7.570;2023-10-08T23:26:23;14.71;95.81
14154;DHT22;7157;53.144;7.570;2023-10-08T23:36:27;14.60;95.69
14154;DHT22;7157;53.144;7.570;2023-10-08T23:46:35;14.62;95.50
14154;DHT22;7157;53.144;7.570;2023-10-08T23:56:46;14.75;95.17
